Weather at Hanover / Saugeen Municipal Airport

Public forecast

Using degrees Celsius for public forecast. Weather courtesy of forecast.io.

Closest aviation weather report (METAR) to Hanover / Saugeen Municipal Airport

Closest report is Wiarton Airport, 35.3 nm (65.4 km) N. Retrieved 2020/12/04 10:27 UTC (0 seconds ago):

CYVV 041027Z 23011G18KT 4SM -SHRA BR OVC008 02/01 A2974 RMK SF8 CVCTV CLD EMBD SLP080

Closest aviation forecast (TAF) to Hanover / Saugeen Municipal Airport

Forecast is more than 12 hours old.

Closest forecast is Wiarton Airport, 35.3 nm (65.4 km) N. Retrieved 2020/12/03 20:00 UTC (14 hours ago):

TAF CYVV 031938Z 0320/0324 24010KT P6SM SCT015 OVC100 TEMPO 0320/0324 P6SM -SHRA OVC015 RMK NXT FCST WILL BE ISSUED AT 041145Z